Time;durP1;ratioP1;P1;durP2;ratioP2;P2;SDS_P1;SDS_P2;PMS_P1;PMS_P2;Temp;Humidity;BMP_temperature;BMP_pressure;BME280_temperature;BME280_humidity;BME280_pressure;Samples;Min_cycle;Max_cycle;Signal;HPM_P1;HPM_P2
2023/05/02 00:01:03;;;;;;;15.88;8.65;;;11.40;99.90;;;;;;5043502;28;20076;-80
2023/05/02 00:03:30;;;;;;;14.60;7.88;;;11.40;99.90;;;;;;5043147;28;20044;-81
2023/05/02 00:05:56;;;;;;;18.45;8.35;;;11.30;99.90;;;;;;5043559;28;20057;-81
2023/05/02 00:08:22;;;;;;;17.60;6.40;;;11.20;99.90;;;;;;5041605;28;20036;-80
2023/05/02 00:10:47;;;;;;;15.52;7.35;;;11.20;99.90;;;;;;5044500;28;20475;-81
2023/05/02 00:13:13;;;;;;;15.10;6.95;;;11.20;99.90;;;;;;5043288;28;20563;-82
2023/05/02 00:15:39;;;;;;;14.68;6.35;;;11.20;99.90;;;;;;5042378;28;20103;-82
2023/05/02 00:18:04;;;;;;;10.18;5.18;;;11.20;99.90;;;;;;5042305;28;20655;-81
2023/05/02 00:20:30;;;;;;;15.77;6.63;;;11.00;99.90;;;;;;5043070;28;20430;-78
2023/05/02 00:22:58;;;;;;;9.55;4.85;;;11.10;99.90;;;;;;5042826;28;20644;-82
2023/05/02 00:25:23;;;;;;;13.65;5.40;;;11.00;99.90;;;;;;5040962;28;20102;-82
2023/05/02 00:27:49;;;;;;;9.98;4.22;;;11.00;99.90;;;;;;5042033;28;21533;-81
2023/05/02 00:30:16;;;;;;;10.02;4.95;;;10.90;99.90;;;;;;5046341;28;20072;-82
2023/05/02 00:32:42;;;;;;;12.27;4.25;;;10.90;99.90;;;;;;5075095;28;20045;-82
2023/05/02 00:35:08;;;;;;;10.10;3.95;;;10.80;99.90;;;;;;5043518;28;20603;-81
2023/05/02 00:37:34;;;;;;;8.90;4.22;;;10.80;99.90;;;;;;5044256;28;20036;-79
2023/05/02 00:40:01;;;;;;;12.10;3.88;;;10.80;99.90;;;;;;5044923;28;20044;-81
2023/05/02 00:42:30;;;;;;;9.10;3.40;;;10.70;99.90;;;;;;5049350;28;20033;-82
2023/05/02 00:44:56;;;;;;;9.38;3.42;;;10.70;99.90;;;;;;5046769;28;20102;-82
2023/05/02 00:47:22;;;;;;;8.55;3.00;;;10.70;99.90;;;;;;5048139;28;20108;-82
2023/05/02 00:49:49;;;;;;;10.27;2.58;;;10.70;99.90;;;;;;5045694;28;20042;-81
2023/05/02 00:52:14;;;;;;;8.60;2.75;;;10.60;99.90;;;;;;5047168;28;20134;-81
2023/05/02 00:54:40;;;;;;;7.25;2.53;;;10.60;99.90;;;;;;5047047;28;20102;-82
2023/05/02 00:57:06;;;;;;;9.93;2.78;;;10.60;99.90;;;;;;5047951;28;20840;-82
2023/05/02 00:59:34;;;;;;;7.43;2.28;;;10.50;99.90;;;;;;5061979;28;20041;-81
2023/05/02 01:02:13;;;;;;;13.07;3.05;;;10.50;99.90;;;;;;5048024;28;20044;-81
2023/05/02 01:04:41;;;;;;;8.80;2.45;;;10.50;99.90;;;;;;5074600;28;20037;-80
2023/05/02 01:07:26;;;;;;;9.95;2.38;;;10.50;99.90;;;;;;5048047;28;20103;-81
2023/05/02 01:10:03;;;;;;;9.32;2.20;;;10.50;99.90;;;;;;5078529;28;20045;-81
2023/05/02 01:13:09;;;;;;;7.35;2.65;;;10.50;99.90;;;;;;5045622;28;20040;-81
2023/05/02 01:15:37;;;;;;;10.48;1.83;;;10.40;99.90;;;;;;5078042;28;20052;-81
2023/05/02 01:18:05;;;;;;;12.60;3.10;;;10.30;99.90;;;;;;5046715;28;20047;-81
2023/05/02 01:20:35;;;;;;;10.80;2.67;;;10.30;99.90;;;;;;5047195;28;20101;-81
2023/05/02 01:23:09;;;;;;;9.75;2.55;;;10.30;99.90;;;;;;5043280;28;20511;-82
2023/05/02 01:25:43;;;;;;;12.05;2.83;;;10.40;99.90;;;;;;5048261;28;20045;-81
2023/05/02 01:28:16;;;;;;;10.85;3.00;;;10.30;99.90;;;;;;5046944;28;20110;-81
2023/05/02 01:30:45;;;;;;;8.70;2.33;;;10.30;99.90;;;;;;5048562;28;20102;-81
2023/05/02 01:33:16;;;;;;;9.45;1.98;;;10.30;99.90;;;;;;5080467;28;20047;-81
2023/05/02 01:35:43;;;;;;;8.30;2.60;;;10.30;99.90;;;;;;5046067;28;20393;-81
2023/05/02 01:38:16;;;;;;;13.93;2.25;;;10.30;99.90;;;;;;5045987;28;20029;-81
2023/05/02 01:40:44;;;;;;;14.80;3.20;;;10.30;99.90;;;;;;5045329;28;20048;-82
2023/05/02 01:43:12;;;;;;;12.15;2.10;;;10.20;99.90;;;;;;5045508;28;20064;-82
2023/05/02 01:45:39;;;;;;;7.05;2.00;;;10.20;99.90;;;;;;5044982;28;20037;-82
2023/05/02 01:48:07;;;;;;;8.70;2.30;;;10.10;99.90;;;;;;5047946;28;20999;-82
2023/05/02 01:50:35;;;;;;;11.43;1.85;;;10.10;99.90;;;;;;5044879;28;20047;-81
2023/05/02 01:53:03;;;;;;;10.20;2.13;;;10.00;99.90;;;;;;5045471;28;20049;-81
2023/05/02 01:55:29;;;;;;;10.38;1.88;;;10.00;99.90;;;;;;5045093;28;20045;-82
2023/05/02 01:57:56;;;;;;;9.82;2.15;;;10.00;99.90;;;;;;5044237;28;20036;-81
2023/05/02 02:00:24;;;;;;;7.57;2.25;;;10.00;99.90;;;;;;5044327;28;20045;-82
2023/05/02 02:02:52;;;;;;;9.15;1.67;;;10.00;99.90;;;;;;5044872;28;20076;-81
2023/05/02 02:05:18;;;;;;;11.10;2.60;;;9.60;99.90;;;;;;5043300;28;20558;-81
2023/05/02 02:07:45;;;;;;;4.13;1.70;;;10.00;99.90;;;;;;5044753;28;20049;-81
2023/05/02 02:10:11;;;;;;;11.27;2.65;;;10.00;99.90;;;;;;5045531;28;20491;-81
2023/05/02 02:12:51;;;;;;;6.65;2.30;;;9.90;99.90;;;;;;5043553;28;20030;-82
2023/05/02 02:15:31;;;;;;;6.93;2.38;;;10.00;99.90;;;;;;5061410;28;20446;-81
2023/05/02 02:18:13;;;;;;;4.15;1.67;;;10.00;99.90;;;;;;5042785;28;20065;-82
2023/05/02 02:20:43;;;;;;;8.88;2.42;;;10.00;99.90;;;;;;5043088;28;20086;-81
2023/05/02 02:23:10;;;;;;;12.57;3.05;;;9.90;99.90;;;;;;5077965;28;20065;-80
2023/05/02 02:25:36;;;;;;;10.50;3.13;;;9.90;99.90;;;;;;5042839;28;20131;-79
2023/05/02 02:28:03;;;;;;;13.43;2.30;;;9.90;99.90;;;;;;5048044;28;20060;-80
2023/05/02 02:30:28;;;;;;;9.48;2.92;;;9.80;99.90;;;;;;5044103;28;20047;-80
2023/05/02 02:32:54;;;;;;;13.88;3.42;;;9.80;99.90;;;;;;5046821;28;20029;-81
2023/05/02 02:35:20;;;;;;;15.05;3.35;;;9.70;99.90;;;;;;5044743;28;20056;-81
2023/05/02 02:38:26;;;;;;;14.98;3.50;;;9.70;99.90;;;;;;5040465;28;20395;-81
2023/05/02 02:41:13;;;;;;;14.23;3.38;;;9.70;99.90;;;;;;5045631;28;20072;-81
2023/05/02 02:43:52;;;;;;;14.70;4.15;;;9.60;99.90;;;;;;5043197;28;20045;-82
2023/05/02 02:46:49;;;;;;;13.02;3.58;;;9.60;99.90;;;;;;5044233;28;20045;-81
2023/05/02 02:49:52;;;;;;;10.38;2.60;;;9.60;99.90;;;;;;5043104;28;20843;-81
2023/05/02 02:52:49;;;;;;;12.55;3.55;;;9.50;99.90;;;;;;5042845;28;20043;-82
2023/05/02 02:55:39;;;;;;;20.33;3.50;;;9.50;99.90;;;;;;5041958;28;20042;-80
2023/05/02 02:58:42;;;;;;;16.45;3.13;;;9.40;99.90;;;;;;5040382;28;20114;-81
2023/05/02 03:01:14;;;;;;;17.25;3.83;;;9.40;99.90;;;;;;5076516;28;20110;-81
2023/05/02 03:03:42;;;;;;;15.15;3.70;;;9.30;99.90;;;;;;5039953;28;20060;-81
2023/05/02 03:06:07;;;;;;;16.98;3.30;;;9.30;99.90;;;;;;5041535;28;20495;-81
2023/05/02 03:08:40;;;;;;;22.13;4.03;;;9.20;99.90;;;;;;5041825;28;20071;-80
2023/05/02 03:11:07;;;;;;;21.15;4.13;;;9.10;99.90;;;;;;5043275;28;20037;-80
2023/05/02 03:13:32;;;;;;;26.75;5.15;;;9.10;99.90;;;;;;5041409;28;20049;-81
2023/05/02 03:16:10;;;;;;;19.90;4.22;;;9.10;99.90;;;;;;5077279;28;20133;-81
2023/05/02 03:18:35;;;;;;;24.48;4.65;;;9.00;99.90;;;;;;5043258;28;20076;-81
2023/05/02 03:21:01;;;;;;;19.92;4.82;;;9.00;99.90;;;;;;5044279;28;20056;-81
2023/05/02 03:23:26;;;;;;;16.38;4.93;;;8.90;99.90;;;;;;5044993;28;20076;-81
2023/05/02 03:25:52;;;;;;;19.80;4.57;;;8.90;99.90;;;;;;5043559;28;20144;-81
2023/05/02 03:28:17;;;;;;;17.05;2.95;;;8.90;99.90;;;;;;5044134;28;20177;-82
2023/05/02 03:30:43;;;;;;;22.40;4.22;;;8.80;99.90;;;;;;5043712;28;20041;-79
2023/05/02 03:33:08;;;;;;;25.23;5.22;;;8.90;99.90;;;;;;5045522;28;20040;-79
2023/05/02 03:35:34;;;;;;;16.20;4.25;;;8.70;99.90;;;;;;5042957;28;20048;-81
2023/05/02 03:38:00;;;;;;;23.02;4.10;;;8.70;99.90;;;;;;5042454;28;20037;-81
2023/05/02 03:40:26;;;;;;;20.45;4.38;;;8.60;99.90;;;;;;5043074;28;20098;-81
2023/05/02 03:42:52;;;;;;;22.27;3.72;;;8.50;99.90;;;;;;5044691;28;20384;-81
2023/05/02 03:45:17;;;;;;;16.25;3.13;;;8.50;99.90;;;;;;5075439;28;20040;-81
2023/05/02 03:47:43;;;;;;;15.88;3.20;;;8.50;99.90;;;;;;5042538;28;20495;-81
2023/05/02 03:50:09;;;;;;;17.90;3.17;;;8.50;99.90;;;;;;5042181;28;20044;-82
2023/05/02 03:52:35;;;;;;;17.27;3.20;;;8.50;99.90;;;;;;5043107;28;20037;-81
2023/05/02 03:55:01;;;;;;;13.93;3.10;;;8.30;99.90;;;;;;5045753;28;20048;-80
2023/05/02 03:57:29;;;;;;;16.98;3.50;;;8.30;99.90;;;;;;5043827;28;20115;-81
2023/05/02 03:59:54;;;;;;;14.82;2.97;;;8.20;99.90;;;;;;5042640;28;20029;-80
2023/05/02 04:02:20;;;;;;;16.55;3.03;;;8.20;99.90;;;;;;5040202;28;20389;-81
2023/05/02 04:04:46;;;;;;;17.77;2.75;;;8.10;99.90;;;;;;5039697;28;20053;-81
2023/05/02 04:07:17;;;;;;;17.67;3.55;;;8.10;99.90;;;;;;5045862;28;20040;-79
2023/05/02 04:09:42;;;;;;;20.60;4.03;;;8.10;99.90;;;;;;5044287;28;20403;-80
2023/05/02 04:12:08;;;;;;;13.57;3.10;;;8.10;99.90;;;;;;5042709;28;20049;-80
2023/05/02 04:14:34;;;;;;;18.40;2.63;;;8.10;99.90;;;;;;5032078;28;20041;-80
2023/05/02 04:16:59;;;;;;;17.58;3.47;;;8.10;99.90;;;;;;5078155;28;20047;-80
2023/05/02 04:19:25;;;;;;;13.32;2.42;;;8.00;99.90;;;;;;5045211;28;20029;-80
2023/05/02 04:21:50;;;;;;;18.00;3.80;;;8.00;99.90;;;;;;5044614;28;20142;-80
2023/05/02 04:24:16;;;;;;;14.88;2.08;;;7.90;99.90;;;;;;5047913;28;20402;-80
2023/05/02 04:26:41;;;;;;;12.10;2.63;;;8.00;99.90;;;;;;5046876;28;20071;-80
2023/05/02 04:29:07;;;;;;;13.20;2.40;;;8.00;99.90;;;;;;5045620;28;20474;-80
2023/05/02 04:31:33;;;;;;;12.05;2.67;;;8.00;99.90;;;;;;5043826;28;20435;-81
2023/05/02 04:33:58;;;;;;;15.65;3.40;;;8.00;99.90;;;;;;5044287;28;20403;-79
2023/05/02 04:36:27;;;;;;;14.25;2.72;;;8.00;99.90;;;;;;5047229;28;20040;-80
2023/05/02 04:38:53;;;;;;;12.15;2.00;;;8.00;99.90;;;;;;5042582;28;20045;-78
2023/05/02 04:41:18;;;;;;;8.75;1.52;;;8.00;99.90;;;;;;5047849;28;20040;-81
2023/05/02 04:43:44;;;;;;;8.10;1.83;;;8.00;99.90;;;;;;5046558;28;20049;-80
2023/05/02 04:46:10;;;;;;;8.73;1.77;;;8.00;99.90;;;;;;5047645;28;20972;-80
2023/05/02 04:48:35;;;;;;;8.60;1.98;;;7.90;99.90;;;;;;5042049;28;20587;-81
2023/05/02 04:51:01;;;;;;;8.65;1.45;;;7.90;99.90;;;;;;5049657;28;20037;-80
2023/05/02 04:53:27;;;;;;;8.48;1.13;;;7.90;99.90;;;;;;5078389;28;20047;-80
2023/05/02 04:55:53;;;;;;;7.88;1.73;;;7.90;99.90;;;;;;5044381;28;21688;-80
2023/05/02 04:58:18;;;;;;;11.07;1.80;;;7.90;99.90;;;;;;5044373;28;20090;-80
2023/05/02 05:00:44;;;;;;;8.95;1.77;;;7.90;99.90;;;;;;5047333;28;20391;-80
2023/05/02 05:03:09;;;;;;;6.05;1.00;;;7.90;99.90;;;;;;5046505;28;20041;-80
2023/05/02 05:05:35;;;;;;;8.32;2.05;;;7.90;99.90;;;;;;5048447;28;20504;-80
2023/05/02 05:08:01;;;;;;;7.78;0.95;;;8.10;99.90;;;;;;5045803;28;20571;-79
2023/05/02 05:10:26;;;;;;;11.00;1.60;;;7.90;99.90;;;;;;5025060;28;20140;-81
2023/05/02 05:12:52;;;;;;;8.45;1.30;;;7.90;99.90;;;;;;5046554;28;20376;-80
2023/05/02 05:15:21;;;;;;;9.98;1.50;;;7.90;99.90;;;;;;5044779;28;20033;-80
2023/05/02 05:17:46;;;;;;;8.75;1.23;;;7.90;99.90;;;;;;5045961;28;20102;-80
2023/05/02 05:20:12;;;;;;;8.95;1.50;;;7.90;99.90;;;;;;5045554;28;20037;-80
2023/05/02 05:22:39;;;;;;;11.90;1.10;;;8.00;99.90;;;;;;5044775;28;20080;-79
2023/05/02 05:25:05;;;;;;;9.95;1.65;;;8.10;99.90;;;;;;5041215;28;20029;-80
2023/05/02 05:27:30;;;;;;;8.55;1.85;;;8.10;99.90;;;;;;5044508;28;20037;-79
2023/05/02 05:29:56;;;;;;;10.02;2.05;;;8.20;99.90;;;;;;5046509;28;20052;-80
2023/05/02 05:32:21;;;;;;;7.45;1.33;;;8.30;99.90;;;;;;5046314;28;20080;-78
2023/05/02 05:34:51;;;;;;;8.88;1.70;;;8.40;99.90;;;;;;5047977;28;20048;-80
2023/05/02 05:37:17;;;;;;;6.45;1.27;;;8.50;99.90;;;;;;5048385;28;20109;-80
2023/05/02 05:39:43;;;;;;;11.90;1.65;;;8.60;99.90;;;;;;5042375;28;20503;-79
2023/05/02 05:42:08;;;;;;;10.07;1.67;;;8.60;99.90;;;;;;5045982;28;20038;-80
2023/05/02 05:44:35;;;;;;;8.10;2.50;;;8.60;99.90;;;;;;5044826;28;20090;-80
2023/05/02 05:47:00;;;;;;;8.82;1.50;;;8.50;99.90;;;;;;5045779;28;20538;-79
2023/05/02 05:49:26;;;;;;;10.13;2.17;;;8.50;99.90;;;;;;5049192;28;20037;-80
2023/05/02 05:51:52;;;;;;;11.57;2.42;;;8.40;99.90;;;;;;5047315;28;20038;-81
2023/05/02 05:54:17;;;;;;;8.30;1.35;;;8.40;99.90;;;;;;5045702;28;20168;-79
2023/05/02 05:56:43;;;;;;;6.43;1.35;;;8.40;99.90;;;;;;5042862;28;20041;-79
2023/05/02 05:59:09;;;;;;;8.85;1.50;;;8.40;99.90;;;;;;5040776;28;20396;-80
2023/05/02 06:01:35;;;;;;;7.80;1.92;;;8.30;99.90;;;;;;5043485;28;20045;-80
2023/05/02 06:04:01;;;;;;;8.68;1.35;;;8.40;99.90;;;;;;5041351;28;20048;-80
2023/05/02 06:06:27;;;;;;;8.80;1.73;;;8.40;99.90;;;;;;5036337;28;20407;-79
2023/05/02 06:08:53;;;;;;;11.10;2.28;;;8.30;99.90;;;;;;5043533;28;20045;-80
2023/05/02 06:11:19;;;;;;;11.52;2.53;;;8.40;99.90;;;;;;5045118;28;20037;-79
2023/05/02 06:13:44;;;;;;;11.18;1.63;;;8.40;99.90;;;;;;5043107;28;20120;-79
2023/05/02 06:16:10;;;;;;;11.93;2.22;;;8.40;99.90;;;;;;5042936;28;20087;-80
2023/05/02 06:18:35;;;;;;;10.40;1.75;;;8.40;99.90;;;;;;5043401;28;20564;-79
2023/05/02 06:21:05;;;;;;;9.82;1.98;;;8.40;99.90;;;;;;5043705;28;20037;-79
2023/05/02 06:23:31;;;;;;;8.65;1.77;;;8.50;99.90;;;;;;5038479;28;20499;-80
2023/05/02 06:26:01;;;;;;;9.68;2.10;;;8.50;99.90;;;;;;5038945;28;20051;-80
2023/05/02 06:28:27;;;;;;;9.13;1.38;;;8.50;99.90;;;;;;5041840;28;20400;-79
2023/05/02 06:31:01;;;;;;;9.68;2.03;;;8.60;99.90;;;;;;5041232;28;20450;-79
2023/05/02 06:33:29;;;;;;;7.75;1.35;;;8.70;99.90;;;;;;5041024;28;20052;-80
2023/05/02 06:35:55;;;;;;;8.73;2.25;;;8.70;99.90;;;;;;5042851;28;20045;-79
2023/05/02 06:38:20;;;;;;;10.65;2.15;;;8.70;99.90;;;;;;5055002;28;20056;-79
2023/05/02 06:40:46;;;;;;;9.82;2.00;;;8.80;99.90;;;;;;5037937;28;20104;-79
2023/05/02 06:43:12;;;;;;;8.23;2.17;;;8.90;99.90;;;;;;5038886;28;20064;-79
2023/05/02 06:45:39;;;;;;;7.95;1.13;;;8.80;99.90;;;;;;5040113;28;20392;-79
2023/05/02 06:48:05;;;;;;;7.18;1.70;;;8.90;99.90;;;;;;5042240;28;20057;-80
2023/05/02 06:50:30;;;;;;;12.65;2.15;;;8.80;99.90;;;;;;5038640;28;20440;-80
2023/05/02 06:52:56;;;;;;;8.48;1.63;;;8.80;99.90;;;;;;5041181;28;20049;-80
2023/05/02 06:55:21;;;;;;;9.30;1.65;;;8.90;99.90;;;;;;5041123;28;20032;-79
2023/05/02 06:57:50;;;;;;;9.10;2.65;;;8.80;99.90;;;;;;5042665;28;20065;-79
2023/05/02 07:00:17;;;;;;;9.75;1.42;;;9.00;99.90;;;;;;5023217;28;20030;-80
2023/05/02 07:02:44;;;;;;;10.20;1.70;;;9.10;99.90;;;;;;5040967;28;20059;-80
2023/05/02 07:05:10;;;;;;;12.05;2.28;;;9.10;99.90;;;;;;5041170;28;20100;-80
2023/05/02 07:07:35;;;;;;;7.97;1.95;;;9.20;99.90;;;;;;5035176;28;20155;-79
2023/05/02 07:10:02;;;;;;;8.45;1.75;;;9.20;99.90;;;;;;5039081;28;20472;-79
2023/05/02 07:12:28;;;;;;;20.38;3.40;;;9.20;99.90;;;;;;5038429;28;20034;-79
2023/05/02 07:14:53;;;;;;;10.45;2.75;;;9.20;99.90;;;;;;5041203;28;20162;-80
2023/05/02 07:17:19;;;;;;;11.75;1.80;;;9.20;99.90;;;;;;5037597;28;20044;-80
2023/05/02 07:19:45;;;;;;;9.32;1.50;;;9.20;99.90;;;;;;5042618;28;20045;-80
2023/05/02 07:22:10;;;;;;;8.65;1.92;;;9.20;99.90;;;;;;5042650;28;20033;-81
2023/05/02 07:24:39;;;;;;;13.57;3.10;;;9.20;99.90;;;;;;5042927;28;20040;-79
2023/05/02 07:27:05;;;;;;;11.07;1.70;;;9.20;99.90;;;;;;5039322;28;20437;-80
2023/05/02 07:29:30;;;;;;;8.73;2.10;;;9.30;99.90;;;;;;5027997;28;20091;-79
2023/05/02 07:31:56;;;;;;;12.60;1.88;;;9.40;99.90;;;;;;5042935;28;20483;-80
2023/05/02 07:34:21;;;;;;;9.30;1.95;;;9.40;99.90;;;;;;5041872;28;20376;-80
2023/05/02 07:36:47;;;;;;;9.00;2.40;;;9.50;99.90;;;;;;5054022;28;20056;-80
2023/05/02 07:39:12;;;;;;;11.27;2.75;;;9.50;99.90;;;;;;5044542;28;20431;-80
2023/05/02 07:41:38;;;;;;;12.68;3.20;;;9.40;99.90;;;;;;5041753;28;20041;-80
2023/05/02 07:44:04;;;;;;;6.97;2.10;;;9.20;99.90;;;;;;5038220;28;20108;-81
2023/05/02 07:46:30;;;;;;;11.15;2.20;;;9.20;99.90;;;;;;5038181;28;20044;-80
2023/05/02 07:48:56;;;;;;;15.00;2.83;;;9.20;99.90;;;;;;5043115;28;20053;-82
2023/05/02 07:51:21;;;;;;;9.05;1.73;;;9.20;99.90;;;;;;5038377;28;20095;-80
2023/05/02 07:53:52;;;;;;;10.25;2.40;;;9.20;99.90;;;;;;5039835;28;20048;-80
2023/05/02 07:56:18;;;;;;;5.65;2.13;;;9.20;99.90;;;;;;5039412;28;20119;-80
2023/05/02 07:58:43;;;;;;;9.25;2.10;;;9.20;99.90;;;;;;5039652;28;21263;-79
2023/05/02 08:01:09;;;;;;;9.77;2.33;;;9.30;99.90;;;;;;5038673;28;20090;-80
2023/05/02 08:03:34;;;;;;;11.52;1.75;;;9.30;99.90;;;;;;5042285;28;20124;-80
2023/05/02 08:06:00;;;;;;;9.50;1.52;;;9.30;99.90;;;;;;5038249;28;20041;-79
2023/05/02 08:08:26;;;;;;;12.35;2.33;;;9.40;99.90;;;;;;5042442;28;20622;-80
2023/05/02 08:10:52;;;;;;;9.50;2.25;;;9.50;99.90;;;;;;5040163;28;20046;-80
2023/05/02 08:13:18;;;;;;;11.02;2.20;;;9.70;99.90;;;;;;5042089;28;20037;-79
2023/05/02 08:15:44;;;;;;;9.43;1.85;;;9.80;99.90;;;;;;5062633;28;20051;-81
2023/05/02 08:18:10;;;;;;;8.18;1.83;;;9.80;99.90;;;;;;5040214;28;20044;-82
2023/05/02 08:20:35;;;;;;;8.48;1.55;;;9.90;99.90;;;;;;5040963;28;20388;-82
2023/05/02 08:23:01;;;;;;;7.72;1.35;;;9.80;99.90;;;;;;5039938;28;20043;-80
2023/05/02 08:25:27;;;;;;;12.65;2.33;;;9.90;99.90;;;;;;5041560;28;20029;-80
2023/05/02 08:27:52;;;;;;;13.40;2.78;;;9.80;99.90;;;;;;5040950;28;20049;-80
2023/05/02 08:30:18;;;;;;;10.30;1.67;;;9.90;99.90;;;;;;5039886;28;20490;-81
2023/05/02 08:32:44;;;;;;;7.38;1.63;;;10.00;99.90;;;;;;5038325;28;20052;-80
2023/05/02 08:35:10;;;;;;;8.65;1.40;;;10.00;99.90;;;;;;5041809;28;20095;-80
2023/05/02 08:37:36;;;;;;;8.70;1.80;;;10.00;99.90;;;;;;5038317;28;20061;-81
2023/05/02 08:40:02;;;;;;;8.25;1.45;;;10.00;99.90;;;;;;5043570;28;20102;-80
2023/05/02 08:42:31;;;;;;;9.70;2.08;;;10.00;99.90;;;;;;5040893;28;20080;-80
2023/05/02 08:44:58;;;;;;;8.63;1.55;;;10.10;99.90;;;;;;5027271;28;20044;-81
2023/05/02 08:47:26;;;;;;;7.38;1.92;;;10.60;99.90;;;;;;5038990;28;20569;-80
2023/05/02 08:49:54;;;;;;;12.73;2.20;;;10.20;99.90;;;;;;5041312;28;20037;-80
2023/05/02 08:52:20;;;;;;;9.95;1.73;;;10.20;99.90;;;;;;5043081;28;20034;-81
2023/05/02 08:54:48;;;;;;;9.25;2.50;;;11.10;99.90;;;;;;5049211;28;20045;-82
2023/05/02 08:57:13;;;;;;;8.05;1.77;;;10.30;99.90;;;;;;5042673;28;20044;-80
2023/05/02 08:59:41;;;;;;;9.60;1.60;;;10.20;99.90;;;;;;5041293;28;20033;-80
2023/05/02 09:02:41;;;;;;;6.85;1.77;;;10.30;99.90;;;;;;5047410;28;20044;-81
2023/05/02 09:05:09;;;;;;;6.20;1.48;;;10.20;99.90;;;;;;5043388;28;20045;-81
2023/05/02 09:07:46;;;;;;;7.25;1.55;;;10.30;99.90;;;;;;5048859;28;20489;-82
2023/05/02 09:10:12;;;;;;;8.55;1.30;;;10.40;99.90;;;;;;5044848;28;20045;-80
2023/05/02 09:12:37;;;;;;;5.20;0.95;;;10.60;99.90;;;;;;5045106;28;20044;-81
2023/05/02 09:15:15;;;;;;;7.63;2.42;;;11.00;99.90;;;;;;5037223;28;20450;-81
2023/05/02 09:17:42;;;;;;;10.48;1.67;;;10.60;99.90;;;;;;5059366;28;20128;-82
2023/05/02 09:20:10;;;;;;;6.60;1.73;;;10.60;99.90;;;;;;5045477;28;20040;-80
2023/05/02 09:22:36;;;;;;;6.38;1.40;;;10.70;99.90;;;;;;5046609;28;20045;-81
2023/05/02 09:25:03;;;;;;;8.15;1.58;;;11.20;99.90;;;;;;5046229;28;20041;-80
2023/05/02 09:27:29;;;;;;;5.25;1.10;;;10.80;99.90;;;;;;5045254;28;20084;-81
2023/05/02 09:30:24;;;;;;;7.03;1.70;;;10.90;99.90;;;;;;5045741;28;20081;-81
2023/05/02 09:32:52;;;;;;;4.40;1.40;;;10.90;99.90;;;;;;5045554;28;20041;-83
2023/05/02 09:35:22;;;;;;;6.60;1.60;;;10.90;99.90;;;;;;5046471;28;20806;-81
2023/05/02 09:37:52;;;;;;;13.02;2.20;;;11.20;99.90;;;;;;5027334;28;20509;-81
2023/05/02 09:40:19;;;;;;;7.13;1.77;;;11.00;99.90;;;;;;5047605;28;20037;-81
2023/05/02 09:42:45;;;;;;;7.40;1.40;;;11.00;99.90;;;;;;5047206;28;20074;-82
2023/05/02 09:45:20;;;;;;;8.27;1.20;;;10.90;99.90;;;;;;5076984;28;20037;-81
2023/05/02 09:47:46;;;;;;;4.95;1.30;;;11.00;99.90;;;;;;5044701;28;20048;-81
2023/05/02 09:50:34;;;;;;;7.72;1.90;;;11.00;99.90;;;;;;5042886;28;20379;-80
2023/05/02 09:53:01;;;;;;;4.97;1.45;;;11.00;99.90;;;;;;5046257;28;20041;-80
2023/05/02 09:55:27;;;;;;;5.97;1.20;;;11.00;99.90;;;;;;5044975;28;20082;-81
2023/05/02 09:57:52;;;;;;;13.50;1.90;;;11.10;99.90;;;;;;5045400;28;20037;-81
2023/05/02 10:00:19;;;;;;;6.32;1.63;;;11.30;99.90;;;;;;5044896;28;20442;-80
2023/05/02 10:02:50;;;;;;;11.45;1.38;;;11.50;99.90;;;;;;5045434;28;20056;-80
2023/05/02 10:05:16;;;;;;;8.90;0.82;;;11.60;99.90;;;;;;5044841;28;20041;-80
2023/05/02 10:07:43;;;;;;;4.20;1.08;;;11.70;99.90;;;;;;5046115;28;20053;-80
2023/05/02 10:10:16;;;;;;;6.40;1.00;;;11.90;99.90;;;;;;5041918;28;20511;-80
2023/05/02 10:12:42;;;;;;;3.90;1.08;;;12.10;99.90;;;;;;5045577;28;20055;-81
2023/05/02 10:15:10;;;;;;;6.07;1.20;;;12.20;99.90;;;;;;5041745;28;20673;-81
2023/05/02 10:17:45;;;;;;;5.82;0.70;;;12.20;99.90;;;;;;5042438;28;20418;-81
2023/05/02 10:20:17;;;;;;;4.15;1.08;;;12.20;99.90;;;;;;5060442;28;20109;-81
2023/05/02 10:22:44;;;;;;;4.45;0.80;;;12.00;99.90;;;;;;5046377;28;20384;-80
2023/05/02 10:25:12;;;;;;;3.33;0.55;;;12.00;99.90;;;;;;5040830;28;20041;-82
2023/05/02 10:27:38;;;;;;;5.72;0.98;;;12.10;99.90;;;;;;5042043;28;20037;-80
2023/05/02 10:30:05;;;;;;;5.13;0.88;;;12.00;99.90;;;;;;5043533;28;20048;-80
2023/05/02 10:32:35;;;;;;;5.55;0.82;;;12.10;99.90;;;;;;5044074;28;20038;-80
2023/05/02 10:35:03;;;;;;;3.83;1.00;;;12.10;99.90;;;;;;5027148;28;20037;-79
2023/05/02 10:37:32;;;;;;;4.30;0.77;;;12.20;99.90;;;;;;5044484;28;20553;-78
2023/05/02 10:39:58;;;;;;;3.80;0.90;;;12.30;99.90;;;;;;5041533;28;20414;-78
2023/05/02 10:42:25;;;;;;;3.85;0.50;;;12.40;99.90;;;;;;5037311;28;20079;-78
2023/05/02 10:44:51;;;;;;;2.85;0.82;;;12.60;99.90;;;;;;5042461;28;20060;-78
2023/05/02 10:47:21;;;;;;;6.88;0.60;;;12.90;99.90;;;;;;5041939;28;20120;-78
2023/05/02 10:49:50;;;;;;;2.55;0.50;;;13.10;99.90;;;;;;5039413;28;20497;-78
2023/05/02 10:52:29;;;;;;;4.50;0.50;;;13.20;99.90;;;;;;5040210;28;20063;-78
2023/05/02 10:55:14;;;;;;;4.45;0.50;;;13.10;99.90;;;;;;5043908;28;20081;-78
2023/05/02 10:57:59;;;;;;;1.43;0.70;;;13.00;99.90;;;;;;5041789;28;20048;-78
2023/05/02 11:00:26;;;;;;;3.75;0.47;;;12.90;99.90;;;;;;5043220;28;20033;-78
2023/05/02 11:02:51;;;;;;;5.20;0.52;;;12.80;99.90;;;;;;5042148;28;20572;-78
2023/05/02 11:05:17;;;;;;;3.72;0.52;;;12.70;99.90;;;;;;5040631;28;20079;-78
2023/05/02 11:07:43;;;;;;;3.47;0.50;;;12.60;99.90;;;;;;5045854;28;20048;-79
2023/05/02 11:10:18;;;;;;;2.50;0.60;;;12.60;99.90;;;;;;5041295;28;20403;-81
2023/05/02 11:13:06;;;;;;;6.45;1.25;;;12.60;99.90;;;;;;5062530;28;20057;-82
2023/05/02 11:15:33;;;;;;;3.22;0.80;;;12.60;99.90;;;;;;5047518;28;20100;-80
2023/05/02 11:18:10;;;;;;;6.50;0.88;;;13.40;99.90;;;;;;5041739;28;20810;-80
2023/05/02 11:24:46;;;;;;;4.20;1.23;;;12.70;99.90;;;;;;5045002;28;20049;-82
2023/05/02 11:27:36;;;;;;;3.20;0.75;;;12.90;99.90;;;;;;5039477;28;20044;-78
2023/05/02 11:30:07;;;;;;;4.57;0.77;;;13.00;99.90;;;;;;5043910;28;20107;-78
2023/05/02 11:32:46;;;;;;;4.43;1.13;;;13.10;99.90;;;;;;5042038;28;20430;-80
2023/05/02 11:35:22;;;;;;;3.40;0.55;;;13.20;99.90;;;;;;5036932;28;20040;-80
2023/05/02 11:37:59;;;;;;;5.38;0.70;;;13.20;99.90;;;;;;5045372;28;20060;-79
2023/05/02 11:40:26;;;;;;;2.17;0.57;;;13.10;99.90;;;;;;5041005;28;20108;-80
2023/05/02 11:42:52;;;;;;;7.28;1.35;;;13.00;99.90;;;;;;5046084;28;20075;-80
2023/05/02 11:45:18;;;;;;;1.92;0.47;;;12.90;99.90;;;;;;5033939;28;20060;-79
2023/05/02 11:47:47;;;;;;;2.05;0.38;;;12.80;99.90;;;;;;5042005;28;20045;-78
2023/05/02 11:50:16;;;;;;;4.10;0.73;;;12.70;99.90;;;;;;5042247;28;20032;-80
2023/05/02 11:53:22;;;;;;;3.78;0.40;;;12.70;99.90;;;;;;5039972;28;20050;-82
2023/05/02 11:55:57;;;;;;;3.42;0.65;;;12.60;99.90;;;;;;5043998;28;20049;-81
2023/05/02 11:58:32;;;;;;;4.60;0.80;;;12.50;99.90;;;;;;5042197;28;20116;-79
2023/05/02 12:01:16;;;;;;;6.10;0.60;;;12.40;99.90;;;;;;5044963;28;20070;-81
2023/05/02 12:03:43;;;;;;;4.68;0.70;;;12.30;99.90;;;;;;5044397;28;20049;-81
2023/05/02 12:06:11;;;;;;;5.35;0.98;;;12.30;99.90;;;;;;5041667;28;20488;-80
2023/05/02 12:08:38;;;;;;;4.72;1.02;;;12.30;99.90;;;;;;5038086;28;20053;-80
2023/05/02 12:11:04;;;;;;;2.88;0.60;;;12.40;99.90;;;;;;5038834;28;20033;-80
2023/05/02 12:13:30;;;;;;;5.95;0.77;;;12.40;99.90;;;;;;5037903;28;20095;-80
2023/05/02 12:15:56;;;;;;;5.28;0.90;;;12.70;99.90;;;;;;5029756;28;20041;-80
2023/05/02 12:18:23;;;;;;;3.53;0.70;;;12.40;99.90;;;;;;5043547;28;20483;-81
2023/05/02 12:20:54;;;;;;;4.38;0.65;;;12.50;99.90;;;;;;5044704;28;20052;-80
2023/05/02 12:23:22;;;;;;;5.13;0.98;;;12.50;99.90;;;;;;5044427;28;20843;-81
2023/05/02 12:25:48;;;;;;;4.43;0.90;;;12.60;99.90;;;;;;5045264;28;20889;-80
2023/05/02 12:28:18;;;;;;;5.25;0.80;;;12.60;99.90;;;;;;5040448;28;20084;-79
2023/05/02 12:30:47;;;;;;;3.60;0.80;;;12.70;99.90;;;;;;5041061;28;20052;-79
2023/05/02 12:33:13;;;;;;;2.63;0.65;;;12.60;99.90;;;;;;5039541;28;20408;-80
2023/05/02 12:35:38;;;;;;;3.85;0.85;;;12.60;99.90;;;;;;5047732;28;20062;-80
2023/05/02 12:38:09;;;;;;;3.78;1.05;;;12.60;99.90;;;;;;5047849;28;20038;-81
2023/05/02 12:40:35;;;;;;;4.18;0.60;;;12.60;99.90;;;;;;5050399;28;20048;-80
2023/05/02 12:43:03;;;;;;;2.13;0.40;;;12.60;99.90;;;;;;5048058;28;20037;-80
2023/05/02 12:45:32;;;;;;;5.45;0.95;;;12.60;99.90;;;;;;5048119;28;20048;-79
2023/05/02 12:48:19;;;;;;;2.47;0.63;;;12.60;99.90;;;;;;5050568;28;20112;-80
2023/05/02 12:50:44;;;;;;;3.35;0.80;;;12.60;99.90;;;;;;5044202;28;20140;-80
2023/05/02 12:53:10;;;;;;;3.22;1.10;;;12.70;99.90;;;;;;5052141;28;20069;-80
2023/05/02 12:55:36;;;;;;;2.42;0.60;;;12.80;99.90;;;;;;5053970;28;20094;-80
2023/05/02 12:58:07;;;;;;;3.90;1.02;;;12.70;99.90;;;;;;5048764;28;20778;-80
2023/05/02 13:00:36;;;;;;;3.47;0.70;;;12.70;99.90;;;;;;5047007;28;20064;-80